Time;durP1;ratioP1;P1;durP2;ratioP2;P2;SDS_P1;SDS_P2;PMS_P1;PMS_P2;Temp;Humidity;BMP_temperature;BMP_pressure;BME280_temperature;BME280_humidity;BME280_pressure;Samples;Min_cycle;Max_cycle;Signal;HPM_P1;HPM_P2
2021/06/01 00:01:41;;;;;;;5.35;3.00;;;;;;;9.39;71.99;99661.38;130333;1098;22559;-60
2021/06/01 00:04:09;;;;;;;9.60;3.77;;;;;;;9.37;72.43;99658.11;130348;1098;22574;-59
2021/06/01 00:06:38;;;;;;;10.05;3.88;;;;;;;9.36;72.03;99672.77;130342;1098;23184;-59
2021/06/01 00:09:09;;;;;;;8.53;4.00;;;;;;;9.33;72.42;99675.98;130278;1098;22572;-60
2021/06/01 00:11:37;;;;;;;10.60;4.07;;;;;;;9.31;72.43;99672.67;130400;1098;22511;-61
2021/06/01 00:14:06;;;;;;;10.10;4.47;;;;;;;9.30;72.46;99673.74;130297;1098;23760;-61
2021/06/01 00:16:34;;;;;;;9.83;3.40;;;;;;;9.30;72.47;99676.45;130285;1098;23238;-61
2021/06/01 00:19:03;;;;;;;8.53;3.00;;;;;;;9.29;72.98;99674.81;130290;1098;22572;-61
2021/06/01 00:21:34;;;;;;;4.17;2.17;;;;;;;9.30;72.39;99670.20;130347;1098;22547;-61
2021/06/01 00:24:03;;;;;;;6.95;3.85;;;;;;;9.30;72.98;99673.74;130294;1098;22592;-60
2021/06/01 00:26:32;;;;;;;6.33;3.13;;;;;;;9.29;72.97;99669.38;130389;1098;22602;-60
2021/06/01 00:29:01;;;;;;;7.73;3.17;;;;;;;9.31;73.02;99663.69;130323;1098;22585;-59
2021/06/01 00:31:29;;;;;;;7.73;3.50;;;;;;;9.31;72.87;99669.95;130368;1098;22538;-58
2021/06/01 00:33:57;;;;;;;10.60;3.10;;;;;;;9.29;72.61;99668.55;130348;1098;23260;-58
2021/06/01 00:36:26;;;;;;;8.90;3.30;;;;;;;9.29;73.01;99672.09;130327;1098;22538;-58
2021/06/01 00:39:14;;;;;;;6.88;2.75;;;;;;;9.27;73.11;99667.96;130330;1098;22579;-61
2021/06/01 00:41:43;;;;;;;4.87;2.73;;;;;;;9.25;72.86;99670.09;130366;1098;22533;-61
2021/06/01 00:44:11;;;;;;;5.67;3.33;;;;;;;9.20;73.14;99665.42;130293;1098;22633;-61
2021/06/01 00:46:40;;;;;;;7.08;3.08;;;;;;;9.16;73.45;99665.08;130339;1098;22542;-61
2021/06/01 00:49:08;;;;;;;6.23;3.40;;;;;;;9.14;73.11;99666.38;130332;1098;22524;-61
2021/06/01 00:51:37;;;;;;;11.70;3.33;;;;;;;9.09;73.68;99672.55;130320;1098;22610;-61
2021/06/01 00:54:06;;;;;;;4.80;3.33;;;;;;;9.04;73.54;99671.65;130279;1098;22543;-61
2021/06/01 00:56:34;;;;;;;7.17;3.27;;;;;;;8.98;74.00;99668.00;130336;1098;22510;-61
2021/06/01 00:59:02;;;;;;;3.97;2.53;;;;;;;8.92;73.58;99665.45;130312;1098;22526;-61
2021/06/01 01:01:31;;;;;;;5.50;2.30;;;;;;;8.90;73.95;99667.59;130344;1098;23237;-62
2021/06/01 01:03:59;;;;;;;3.90;2.53;;;;;;;8.85;73.67;99674.56;130361;1098;23163;-62
2021/06/01 01:06:39;;;;;;;5.73;2.30;;;;;;;8.81;74.14;99676.11;130281;1098;23342;-62
2021/06/01 01:09:12;;;;;;;12.30;3.10;;;;;;;8.77;74.58;99683.11;130309;1098;23335;-62
2021/06/01 01:11:46;;;;;;;6.37;2.33;;;;;;;8.76;74.50;99675.20;129990;1098;22576;-62
2021/06/01 01:14:24;;;;;;;5.63;2.67;;;;;;;8.74;75.05;99666.47;130056;1098;22594;-62
2021/06/01 01:16:58;;;;;;;4.10;2.40;;;;;;;8.74;74.55;99671.91;130289;1098;22800;-62
2021/06/01 01:20:07;;;;;;;3.73;2.40;;;;;;;8.75;75.32;99670.84;130378;1098;22637;-62
2021/06/01 01:22:41;;;;;;;5.83;2.20;;;;;;;8.75;75.50;99673.55;130413;1098;22506;-63
2021/06/01 01:25:28;;;;;;;8.17;2.57;;;;;;;8.75;74.83;99668.13;130358;1098;22525;-63
2021/06/01 01:28:05;;;;;;;6.40;2.50;;;;;;;8.77;75.09;99679.58;130343;1098;22558;-63
2021/06/01 01:30:44;;;;;;;5.63;2.70;;;;;;;8.76;75.40;99675.20;130333;1098;22663;-63
2021/06/01 01:33:14;;;;;;;5.70;2.60;;;;;;;8.75;75.27;99671.66;130333;1098;23622;-63
2021/06/01 01:35:42;;;;;;;8.67;2.97;;;;;;;8.76;75.23;99680.64;130272;1098;22554;-63
2021/06/01 01:38:10;;;;;;;5.23;2.63;;;;;;;8.75;75.19;99674.38;130032;1098;23510;-63
2021/06/01 01:40:40;;;;;;;4.50;2.90;;;;;;;8.74;74.93;99675.44;130279;1098;23022;-59
2021/06/01 01:43:14;;;;;;;8.07;2.70;;;;;;;8.73;75.83;99675.69;130325;1098;23334;-59
2021/06/01 01:45:48;;;;;;;5.07;3.00;;;;;;;8.71;75.52;99681.35;130249;1098;22560;-59
2021/06/01 01:51:12;;;;;;;4.67;2.90;;;;;;;8.67;75.72;99682.89;130052;1098;22535;-59
2021/06/01 01:53:48;;;;;;;5.87;2.77;;;;;;;8.65;75.63;99684.23;130070;1100;23597;-59
2021/06/01 01:56:18;;;;;;;6.17;2.97;;;;;;;8.62;75.68;99685.53;130315;1098;22509;-59
2021/06/01 01:58:48;;;;;;;7.40;2.77;;;;;;;8.59;75.37;99682.47;130333;1098;23391;-59
2021/06/01 02:01:17;;;;;;;10.90;2.45;;;;;;;8.58;75.71;99683.53;130008;1099;22580;-59
2021/06/01 02:03:45;;;;;;;13.55;3.05;;;;;;;8.56;75.88;99683.77;130317;1098;22483;-59
2021/06/01 02:06:14;;;;;;;5.85;2.60;;;;;;;8.56;75.83;99682.94;130337;1098;22593;-59
2021/06/01 02:08:43;;;;;;;7.25;2.40;;;;;;;8.55;75.78;99675.86;130298;1098;22613;-59
2021/06/01 02:11:11;;;;;;;5.50;2.53;;;;;;;8.57;75.72;99677.27;130401;1098;22630;-59
2021/06/01 02:13:51;;;;;;;7.55;3.10;;;;;;;8.57;76.26;99682.70;130298;1098;22549;-59
2021/06/01 02:16:21;;;;;;;4.23;2.60;;;;;;;8.59;75.97;99680.58;130348;1098;23101;-59
2021/06/01 02:18:50;;;;;;;5.87;2.83;;;;;;;8.61;76.17;99677.63;130339;1098;23529;-60
2021/06/01 02:24:15;;;;;;;5.30;2.80;;;;;;;8.63;75.91;99678.20;130230;1098;22548;-59
2021/06/01 02:27:08;;;;;;;7.07;2.57;;;;;;;8.65;75.52;99678.80;130353;1098;23162;-59
2021/06/01 02:29:44;;;;;;;9.57;2.57;;;;;;;8.64;75.39;99674.43;129728;1101;22722;-59
2021/06/01 02:32:12;;;;;;;5.03;2.37;;;;;;;8.64;75.69;99677.14;129615;1104;22634;-60
2021/06/01 02:34:41;;;;;;;5.45;3.00;;;;;;;8.64;75.87;99682.58;129673;1101;22602;-59
2021/06/01 02:38:01;;;;;;;4.05;2.85;;;;;;;8.63;75.62;99680.92;125585;1090;25493;-59
2021/06/01 02:40:29;;;;;;;4.23;2.90;;;;;;;8.64;75.75;99682.58;129983;1101;23276;-59
2021/06/01 02:42:59;;;;;;;8.85;3.30;;;;;;;8.63;75.75;99689.90;129926;1101;22556;-60
2021/06/01 02:45:27;;;;;;;4.53;2.43;;;;;;;8.63;76.01;99689.90;129981;1101;22533;-60
2021/06/01 02:47:55;;;;;;;6.23;2.57;;;;;;;8.64;76.07;99685.30;129991;1101;22539;-60
2021/06/01 02:50:24;;;;;;;3.87;3.10;;;;;;;8.66;75.74;99688.56;129664;1102;22852;-60
2021/06/01 02:52:52;;;;;;;7.83;2.70;;;;;;;8.67;76.10;99682.07;129873;1101;22677;-60
2021/06/01 02:55:21;;;;;;;6.43;2.87;;;;;;;8.70;75.65;99687.85;129707;1101;22767;-60
2021/06/01 02:57:49;;;;;;;3.20;2.20;;;;;;;8.74;75.93;99689.02;129758;1101;22549;-60
2021/06/01 03:00:20;;;;;;;6.33;3.07;;;;;;;8.76;76.10;99697.77;129956;1101;23433;-59
2021/06/01 03:02:49;;;;;;;4.30;2.50;;;;;;;8.81;75.92;99686.97;129984;1101;22519;-59
2021/06/01 03:05:18;;;;;;;4.50;2.57;;;;;;;8.85;75.93;99685.44;129954;1101;23279;-59
2021/06/01 03:07:54;;;;;;;13.63;2.60;;;;;;;8.91;75.85;99690.97;129988;1101;22717;-59
2021/06/01 03:10:24;;;;;;;3.27;2.30;;;;;;;8.94;75.39;99682.34;129914;1101;23621;-59
2021/06/01 03:12:59;;;;;;;12.00;2.60;;;;;;;9.00;75.95;99694.94;129962;1101;22576;-59
2021/06/01 03:15:27;;;;;;;5.57;2.57;;;;;;;9.05;75.17;99690.44;129902;1101;22545;-59
2021/06/01 03:17:56;;;;;;;5.43;2.50;;;;;;;9.09;75.03;99677.19;129945;1101;22560;-60
2021/06/01 03:20:24;;;;;;;7.30;3.30;;;;;;;9.13;75.12;99675.61;129913;1101;23538;-60
2021/06/01 03:22:53;;;;;;;3.77;3.23;;;;;;;9.10;74.68;99676.09;129951;1101;22684;-60
2021/06/01 03:25:21;;;;;;;5.13;2.80;;;;;;;9.18;75.03;99684.69;129950;1101;22553;-60
2021/06/01 03:27:49;;;;;;;4.40;2.73;;;;;;;9.20;75.02;99685.27;130001;1101;22567;-60
2021/06/01 03:30:18;;;;;;;5.47;2.50;;;;;;;9.27;75.14;99690.53;129967;1101;22545;-59
2021/06/01 03:32:46;;;;;;;3.23;2.70;;;;;;;9.30;74.41;99690.05;129987;1101;22566;-60
2021/06/01 03:35:15;;;;;;;3.03;2.63;;;;;;;9.32;74.22;99682.48;129949;1101;22563;-60
2021/06/01 03:37:44;;;;;;;4.77;2.80;;;;;;;9.36;73.78;99683.65;129974;1101;22551;-60
2021/06/01 03:40:13;;;;;;;6.23;2.98;;;;;;;9.37;73.71;99681.75;129999;1101;22536;-60
2021/06/01 03:42:41;;;;;;;5.77;2.70;;;;;;;9.38;72.93;99678.76;129707;1101;22566;-62
2021/06/01 03:45:11;;;;;;;3.07;2.77;;;;;;;9.41;72.90;99680.17;129948;1101;22680;-60
2021/06/01 03:47:40;;;;;;;7.60;3.10;;;;;;;9.45;73.26;99673.17;129913;1101;23080;-59
2021/06/01 03:50:09;;;;;;;4.77;2.90;;;;;;;9.51;72.70;99673.02;130000;1101;23528;-60
2021/06/01 03:52:37;;;;;;;5.27;3.33;;;;;;;9.58;72.95;99672.84;129911;1101;22649;-60
2021/06/01 03:55:06;;;;;;;5.73;3.70;;;;;;;9.64;72.50;99679.20;130048;1101;22550;-60
2021/06/01 03:57:35;;;;;;;6.37;3.10;;;;;;;9.68;72.19;99675.71;129946;1101;23148;-60
2021/06/01 04:00:08;;;;;;;6.80;3.67;;;;;;;9.71;71.91;99675.22;130004;1101;22566;-61
2021/06/01 04:02:39;;;;;;;6.17;3.03;;;;;;;9.75;71.86;99672.84;129966;1101;23371;-60
2021/06/01 04:05:08;;;;;;;8.10;3.07;;;;;;;9.78;71.32;99669.63;130002;1101;22589;-60
2021/06/01 04:07:36;;;;;;;4.78;3.53;;;;;;;9.81;70.92;99669.92;129936;1101;22562;-61
2021/06/01 04:10:05;;;;;;;6.13;3.10;;;;;;;9.87;71.14;99666.22;130005;1101;22667;-61
2021/06/01 04:12:34;;;;;;;4.57;3.27;;;;;;;9.92;71.19;99662.76;129937;1101;22587;-61
2021/06/01 04:15:03;;;;;;;7.17;3.70;;;;;;;9.98;71.02;99678.07;129962;1101;22791;-60
2021/06/01 04:17:32;;;;;;;4.55;3.40;;;;;;;10.04;70.69;99663.47;129984;1101;22620;-60
2021/06/01 04:20:01;;;;;;;6.37;3.03;;;;;;;10.08;70.41;99669.25;129978;1101;23271;-61
2021/06/01 04:22:29;;;;;;;6.50;3.73;;;;;;;10.11;69.71;99666.00;129901;1101;22580;-61
2021/06/01 04:24:57;;;;;;;10.85;3.98;;;;;;;10.13;69.57;99672.84;130023;1101;22507;-61
2021/06/01 04:27:26;;;;;;;8.50;3.83;;;;;;;10.14;69.07;99676.39;129971;1101;22556;-61
2021/06/01 04:29:54;;;;;;;7.03;3.33;;;;;;;10.13;69.00;99664.67;130019;1101;23315;-61
2021/06/01 04:32:22;;;;;;;3.53;2.70;;;;;;;10.14;68.91;99668.22;129936;1101;22552;-60
2021/06/01 04:34:51;;;;;;;4.93;3.40;;;;;;;10.15;69.03;99657.08;129939;1101;22537;-60
2021/06/01 04:37:20;;;;;;;4.03;2.90;;;;;;;10.18;69.41;99656.62;129963;1101;23707;-60
2021/06/01 04:39:48;;;;;;;4.50;3.03;;;;;;;10.27;69.63;99667.88;129961;1101;23696;-64
2021/06/01 04:42:16;;;;;;;6.88;2.95;;;;;;;10.35;68.85;99662.02;129974;1101;22617;-64
2021/06/01 04:44:45;;;;;;;4.98;3.08;;;;;;;10.40;68.32;99666.69;129930;1101;22760;-64
2021/06/01 04:47:15;;;;;;;5.15;3.20;;;;;;;10.43;68.59;99658.83;129990;1101;22549;-64
2021/06/01 04:49:43;;;;;;;12.13;4.28;;;;;;;10.46;67.75;99652.06;129960;1101;23357;-64
2021/06/01 04:52:12;;;;;;;8.10;2.60;;;;;;;10.49;67.34;99652.38;129971;1101;22664;-63
2021/06/01 04:54:40;;;;;;;4.87;2.73;;;;;;;10.55;66.77;99654.07;129984;1101;23430;-63
2021/06/01 04:57:09;;;;;;;6.07;3.10;;;;;;;10.60;66.11;99654.14;130015;1101;23705;-63
2021/06/01 04:59:37;;;;;;;5.25;3.10;;;;;;;10.73;67.33;99654.82;129917;1101;22551;-63
2021/06/01 05:02:06;;;;;;;3.15;2.55;;;;;;;10.81;66.36;99649.76;130056;1101;22645;-63
2021/06/01 05:04:34;;;;;;;5.85;2.30;;;;;;;10.87;65.92;99647.89;129952;1101;22607;-63
2021/06/01 05:07:03;;;;;;;9.08;2.90;;;;;;;10.94;65.94;99646.63;129971;1101;22604;-63
2021/06/01 05:09:31;;;;;;;3.55;2.45;;;;;;;11.07;65.91;99650.01;129963;1101;22567;-63
2021/06/01 05:12:01;;;;;;;7.15;3.23;;;;;;;11.22;65.05;99652.88;129975;1101;22743;-63
2021/06/01 05:14:30;;;;;;;6.18;2.68;;;;;;;11.40;64.95;99657.14;129970;1101;22563;-63
2021/06/01 05:17:18;;;;;;;5.60;2.78;;;;;;;11.66;64.01;99650.79;130010;1101;22656;-63
2021/06/01 05:19:47;;;;;;;3.75;2.50;;;;;;;11.93;63.84;99650.73;129992;1101;23290;-63
2021/06/01 05:22:16;;;;;;;4.33;2.63;;;;;;;12.19;63.84;99652.52;130035;1101;22586;-63
2021/06/01 05:24:45;;;;;;;2.88;2.20;;;;;;;12.48;63.13;99652.09;130005;1101;22544;-63
2021/06/01 05:27:14;;;;;;;8.28;2.40;;;;;;;12.78;61.91;99654.94;130011;1101;22634;-63
2021/06/01 05:29:47;;;;;;;5.58;2.28;;;;;;;13.03;60.84;99649.52;129950;1101;22551;-63
2021/06/01 05:34:57;;;;;;;4.48;2.30;;;;;;;13.36;58.87;99633.72;129914;1101;23022;-64
2021/06/01 05:37:33;;;;;;;4.43;2.40;;;;;;;13.48;59.13;99641.66;129870;1101;23219;-63
2021/06/01 05:40:03;;;;;;;4.47;2.10;;;;;;;13.56;58.80;99650.13;128199;1101;22762;-59
2021/06/01 05:42:34;;;;;;;4.30;2.50;;;;;;;13.62;58.70;99642.74;130007;1101;24170;-60
2021/06/01 05:45:04;;;;;;;4.25;2.68;;;;;;;13.65;57.88;99639.46;129984;1101;22605;-61
2021/06/01 05:47:32;;;;;;;7.23;2.28;;;;;;;13.62;57.77;99640.00;129976;1101;23513;-60
2021/06/01 05:50:01;;;;;;;4.03;2.15;;;;;;;13.53;57.08;99647.96;129990;1101;22538;-59
2021/06/01 05:52:29;;;;;;;3.95;2.50;;;;;;;13.43;57.89;99640.55;129853;1101;23459;-60
2021/06/01 05:54:58;;;;;;;2.80;2.45;;;;;;;13.32;57.38;99659.98;129959;1101;23301;-60
2021/06/01 05:57:26;;;;;;;9.15;2.65;;;;;;;13.21;58.58;99647.39;129974;1101;22546;-59
2021/06/01 05:59:55;;;;;;;7.15;2.63;;;;;;;13.11;58.22;99648.17;130013;1101;22574;-60
2021/06/01 06:02:23;;;;;;;3.18;2.08;;;;;;;12.99;58.31;99653.88;129934;1101;22557;-60
2021/06/01 06:04:52;;;;;;;4.38;2.50;;;;;;;12.91;59.12;99648.95;129926;1101;22575;-59
2021/06/01 06:07:20;;;;;;;7.03;2.75;;;;;;;12.84;58.45;99648.38;129925;1101;22559;-59
2021/06/01 06:09:49;;;;;;;6.05;2.30;;;;;;;12.77;59.01;99644.27;129919;1101;22697;-59
2021/06/01 06:12:17;;;;;;;5.05;2.30;;;;;;;12.72;59.53;99648.63;129975;1101;22718;-59
2021/06/01 06:14:47;;;;;;;5.05;2.60;;;;;;;12.72;59.92;99656.00;129942;1101;22731;-58
2021/06/01 06:17:36;;;;;;;4.60;2.15;;;;;;;12.73;59.68;99650.27;129916;1101;22657;-59
2021/06/01 06:20:05;;;;;;;5.30;1.88;;;;;;;12.76;60.40;99646.17;129699;1102;22610;-59
2021/06/01 06:22:33;;;;;;;3.83;2.13;;;;;;;12.81;59.67;99648.94;129946;1101;22894;-59
2021/06/01 06:25:06;;;;;;;8.43;2.08;;;;;;;12.85;60.00;99655.48;129956;1101;22544;-59
2021/06/01 06:27:35;;;;;;;5.20;2.05;;;;;;;12.91;60.23;99640.75;129933;1101;23336;-59
2021/06/01 06:30:08;;;;;;;6.38;2.05;;;;;;;12.98;58.62;99651.44;130009;1101;22560;-59
2021/06/01 06:32:36;;;;;;;4.10;1.70;;;;;;;13.02;58.13;99652.52;129953;1101;23848;-59
2021/06/01 06:35:05;;;;;;;4.53;2.00;;;;;;;12.99;57.70;99662.08;129936;1101;22714;-59
2021/06/01 06:37:34;;;;;;;3.98;2.13;;;;;;;12.95;57.10;99652.80;129964;1101;22562;-59
2021/06/01 06:40:04;;;;;;;6.93;1.83;;;;;;;12.89;56.49;99651.13;129940;1101;22559;-59
2021/06/01 06:42:33;;;;;;;6.00;1.73;;;;;;;12.84;57.50;99653.84;129917;1101;22648;-59
2021/06/01 06:45:04;;;;;;;3.15;2.40;;;;;;;12.81;56.99;99651.67;129984;1101;23286;-59
2021/06/01 06:50:22;;;;;;;4.80;1.90;;;;;;;12.75;57.88;99650.00;129948;1101;22593;-59
2021/06/01 06:52:50;;;;;;;6.15;1.58;;;;;;;12.73;57.34;99650.27;129942;1101;23780;-59
2021/06/01 06:55:20;;;;;;;2.95;1.63;;;;;;;12.73;58.66;99639.33;129864;1101;22547;-59
2021/06/01 06:57:48;;;;;;;4.68;1.58;;;;;;;12.84;59.13;99640.17;129962;1101;22588;-59
2021/06/01 07:00:18;;;;;;;5.98;2.05;;;;;;;13.00;58.89;99644.58;130039;1101;23539;-59
2021/06/01 07:02:47;;;;;;;4.90;2.05;;;;;;;13.15;58.57;99632.88;129919;1101;22643;-59
2021/06/01 07:05:18;;;;;;;5.35;1.73;;;;;;;13.26;56.89;99647.41;129922;1101;22564;-59
2021/06/01 07:07:53;;;;;;;4.90;1.80;;;;;;;13.34;57.29;99644.11;130025;1101;25753;-59
2021/06/01 07:10:21;;;;;;;3.98;1.63;;;;;;;13.43;57.07;99642.47;129921;1101;22549;-59
2021/06/01 07:12:51;;;;;;;4.80;1.70;;;;;;;13.53;56.13;99647.96;129979;1101;22575;-59
2021/06/01 07:15:22;;;;;;;4.10;1.68;;;;;;;13.56;55.06;99639.17;129983;1101;22521;-59
2021/06/01 07:17:58;;;;;;;5.38;1.88;;;;;;;13.52;55.15;99649.05;129928;1101;22984;-59
2021/06/01 07:20:31;;;;;;;2.33;1.48;;;;;;;13.43;54.62;99647.94;129932;1101;22564;-59
2021/06/01 07:22:59;;;;;;;4.20;2.05;;;;;;;13.33;55.76;99639.73;130000;1101;22531;-60
2021/06/01 07:25:29;;;;;;;3.83;1.83;;;;;;;13.26;55.36;99642.76;129902;1101;23369;-59
2021/06/01 07:27:58;;;;;;;4.58;1.80;;;;;;;13.23;54.90;99643.30;129979;1101;22574;-60
2021/06/01 07:30:27;;;;;;;5.45;2.00;;;;;;;13.21;55.50;99652.86;129992;1101;22522;-60
2021/06/01 07:32:55;;;;;;;4.00;1.55;;;;;;;13.19;54.69;99646.84;129995;1101;23302;-59
2021/06/01 07:35:25;;;;;;;7.65;2.25;;;;;;;13.13;54.98;99647.91;129932;1101;22556;-59
2021/06/01 07:37:54;;;;;;;5.10;1.45;;;;;;;13.07;54.99;99649.80;129967;1101;22601;-59
2021/06/01 07:40:24;;;;;;;4.20;2.13;;;;;;;13.05;57.07;99651.98;127573;1101;22756;-63
2021/06/01 07:42:52;;;;;;;4.95;1.60;;;;;;;13.15;55.63;99645.73;129993;1101;22540;-63
2021/06/01 07:45:25;;;;;;;6.55;1.88;;;;;;;13.26;56.23;99648.23;129947;1101;22534;-63
2021/06/01 07:47:55;;;;;;;7.15;1.85;;;;;;;13.37;55.40;99654.52;129953;1101;22572;-64
2021/06/01 07:50:24;;;;;;;3.85;1.68;;;;;;;13.44;54.87;99652.31;129908;1101;22554;-67
2021/06/01 07:52:52;;;;;;;6.78;2.38;;;;;;;13.45;54.57;99652.05;130020;1101;22650;-64
2021/06/01 07:55:21;;;;;;;4.98;1.78;;;;;;;13.43;54.82;99656.15;129931;1101;22564;-64
2021/06/01 07:57:50;;;;;;;2.58;1.50;;;;;;;13.43;56.13;99653.41;129936;1101;22556;-63
2021/06/01 08:00:21;;;;;;;6.35;2.03;;;;;;;13.45;55.38;99657.52;129963;1101;22562;-63
2021/06/01 08:02:50;;;;;;;3.18;2.10;;;;;;;13.42;53.62;99651.77;129955;1101;23315;-65
2021/06/01 08:05:20;;;;;;;3.08;1.68;;;;;;;13.32;53.90;99636.17;130032;1101;23589;-64
2021/06/01 08:07:49;;;;;;;5.05;1.73;;;;;;;13.31;55.24;99633.70;129990;1101;22561;-63
2021/06/01 08:10:21;;;;;;;2.97;1.87;;;;;;;13.33;55.19;99646.03;129998;1101;22657;-64
2021/06/01 08:12:50;;;;;;;8.48;3.18;;;;;;;13.32;55.09;99636.17;129886;1101;22602;-64
2021/06/01 08:15:21;;;;;;;2.50;1.53;;;;;;;13.30;54.51;99634.80;130006;1101;23087;-63
2021/06/01 08:17:53;;;;;;;4.28;1.93;;;;;;;13.28;55.01;99642.45;129920;1101;22649;-64
2021/06/01 08:20:40;;;;;;;5.23;1.45;;;;;;;13.27;55.45;99638.89;130010;1101;22677;-64
2021/06/01 08:23:08;;;;;;;18.38;2.33;;;;;;;13.32;54.66;99636.17;129949;1101;22604;-65
2021/06/01 08:25:37;;;;;;;2.18;1.50;;;;;;;13.37;54.31;99629.89;130002;1101;22604;-64
2021/06/01 08:28:05;;;;;;;2.98;1.98;;;;;;;13.39;54.80;99636.73;129925;1101;23090;-64
2021/06/01 08:30:33;;;;;;;8.40;1.88;;;;;;;13.42;54.58;99627.95;129991;1101;23404;-65
2021/06/01 08:33:02;;;;;;;3.65;1.90;;;;;;;13.50;55.74;99614.83;129965;1101;22608;-65
2021/06/01 08:35:31;;;;;;;4.00;2.80;;;;;;;13.59;54.67;99613.98;129956;1101;22642;-64
2021/06/01 08:37:59;;;;;;;5.53;1.70;;;;;;;13.72;53.85;99623.55;129701;1101;22780;-64
2021/06/01 08:40:29;;;;;;;2.77;1.67;;;;;;;13.77;53.16;99627.12;127418;1101;22921;-59
2021/06/01 08:42:58;;;;;;;3.83;1.80;;;;;;;13.77;53.44;99626.30;129873;1101;24719;-60
2021/06/01 08:45:27;;;;;;;7.78;1.73;;;;;;;13.72;54.04;99623.55;130022;1101;22537;-60
2021/06/01 08:47:56;;;;;;;4.40;1.78;;;;;;;13.69;53.63;99630.43;129930;1101;23877;-60
2021/06/01 08:50:25;;;;;;;1.88;1.35;;;;;;;13.67;53.35;99640.83;129964;1101;22559;-61
2021/06/01 08:52:53;;;;;;;5.43;1.70;;;;;;;13.71;52.80;99617.25;129742;1101;22572;-60
2021/06/01 08:55:22;;;;;;;2.63;1.50;;;;;;;13.73;52.76;99617.80;129988;1101;23608;-60
2021/06/01 08:57:50;;;;;;;5.98;1.58;;;;;;;13.74;51.94;99621.36;129947;1101;22590;-60
2021/06/01 09:00:19;;;;;;;5.28;1.85;;;;;;;13.76;52.29;99621.91;130018;1101;22550;-61
2021/06/01 09:03:07;;;;;;;3.78;1.80;;;;;;;13.76;51.99;99619.17;129972;1101;22582;-60
2021/06/01 09:05:36;;;;;;;6.25;2.38;;;;;;;13.80;52.88;99614.80;129990;1101;22533;-60
2021/06/01 09:08:10;;;;;;;4.55;1.83;;;;;;;13.87;52.85;99609.84;129995;1101;25695;-60
2021/06/01 09:10:58;;;;;;;9.05;2.38;;;;;;;13.99;53.35;99615.04;129958;1101;22610;-60
2021/06/01 09:13:49;;;;;;;2.93;1.60;;;;;;;14.07;52.54;99609.80;129954;1101;23452;-60
2021/06/01 09:22:01;;;;;;;5.05;1.70;;;;;;;14.14;49.71;99610.30;130011;1101;22551;-60
2021/06/01 09:24:32;;;;;;;3.60;1.48;;;;;;;14.10;51.30;99611.16;129964;1101;24576;-60
2021/06/01 09:29:33;;;;;;;4.33;1.85;;;;;;;14.16;50.07;99610.03;129951;1101;22616;-59
2021/06/01 09:32:08;;;;;;;4.63;1.30;;;;;;;14.17;50.74;99611.67;130026;1101;22555;-60
2021/06/01 09:34:37;;;;;;;3.40;1.60;;;;;;;14.16;50.04;99620.98;130008;1101;23966;-60
2021/06/01 09:37:19;;;;;;;6.25;1.38;;;;;;;14.13;49.40;99616.91;129996;1101;22582;-60
2021/06/01 09:40:05;;;;;;;9.48;2.53;;;;;;;14.09;50.26;99602.13;129926;1101;22618;-60
2021/06/01 09:42:35;;;;;;;5.28;1.50;;;;;;;14.10;50.23;99613.91;130032;1101;22677;-60
2021/06/01 09:45:17;;;;;;;2.35;1.53;;;;;;;14.11;50.16;99599.11;129709;1103;22589;-60
2021/06/01 09:48:08;;;;;;;4.85;1.55;;;;;;;14.17;49.81;99597.97;129983;1101;22649;-60
2021/06/01 09:53:29;;;;;;;8.33;1.40;;;;;;;14.36;49.03;99615.45;130029;1101;22664;-59
2021/06/01 09:55:58;;;;;;;3.53;1.38;;;;;;;14.37;48.09;99602.56;129697;1101;22709;-60
2021/06/01 09:58:36;;;;;;;4.40;1.55;;;;;;;14.34;47.91;99608.59;129830;1101;23048;-60
2021/06/01 10:01:31;;;;;;;1.35;1.13;;;;;;;14.28;47.58;99599.59;129991;1101;22598;-60
2021/06/01 10:04:00;;;;;;;3.65;1.10;;;;;;;14.24;47.48;99600.42;129949;1101;23305;-60
2021/06/01 10:06:35;;;;;;;7.65;1.90;;;;;;;14.26;47.45;99607.27;129818;1101;23419;-60
2021/06/01 10:09:09;;;;;;;5.35;1.35;;;;;;;14.30;47.25;99602.84;130038;1101;23074;-60
2021/06/01 10:11:39;;;;;;;6.13;1.30;;;;;;;14.34;47.12;99595.72;129961;1101;22574;-60
2021/06/01 10:14:08;;;;;;;4.88;1.53;;;;;;;14.38;47.69;99583.09;129731;1101;23453;-60
2021/06/01 10:16:37;;;;;;;6.43;1.43;;;;;;;14.41;48.31;99592.72;129681;1101;22723;-59
2021/06/01 10:19:09;;;;;;;2.90;1.20;;;;;;;14.45;47.94;99599.25;130016;1101;22566;-60
2021/06/01 10:21:37;;;;;;;1.83;1.10;;;;;;;14.43;47.80;99595.97;129843;1101;22543;-60
2021/06/01 10:24:09;;;;;;;2.83;1.10;;;;;;;14.43;47.05;99590.48;129978;1101;22646;-60
2021/06/01 10:26:37;;;;;;;3.53;1.60;;;;;;;14.45;46.58;99601.99;129949;1101;23158;-60
2021/06/01 10:29:07;;;;;;;3.28;1.35;;;;;;;14.44;47.33;99606.66;129710;1102;22715;-60
2021/06/01 10:31:42;;;;;;;2.63;1.48;;;;;;;14.42;46.87;99600.66;129865;1101;22709;-60
2021/06/01 10:34:13;;;;;;;6.25;1.55;;;;;;;14.41;47.85;99589.97;129844;1101;22542;-60
2021/06/01 10:53:26;;;;;;;7.73;1.63;;;;;;;14.51;47.17;99581.69;129936;1101;24280;-65
2021/06/01 10:56:03;;;;;;;7.20;1.50;;;;;;;14.58;46.47;99573.95;130296;1098;23291;-64
2021/06/01 10:58:37;;;;;;;4.55;1.83;;;;;;;14.64;46.77;99592.03;130287;1098;22641;-64
2021/06/01 11:04:27;;;;;;;3.60;1.30;;;;;;;14.62;46.15;99583.27;130259;1098;22544;-64
2021/06/01 11:06:59;;;;;;;4.90;1.60;;;;;;;14.61;46.40;99592.59;130333;1098;22618;-64
2021/06/01 11:09:33;;;;;;;2.45;1.30;;;;;;;14.60;45.87;99590.13;130329;1098;23221;-64
2021/06/01 11:12:22;;;;;;;9.53;1.70;;;;;;;14.60;45.77;99585.47;130400;1098;22502;-64
2021/06/01 11:14:57;;;;;;;5.28;1.88;;;;;;;14.65;45.51;99579.97;130327;1098;22577;-64
2021/06/01 11:17:45;;;;;;;1.98;1.43;;;;;;;14.70;45.61;99573.64;130374;1098;23224;-64
2021/06/01 11:20:25;;;;;;;8.03;1.70;;;;;;;14.76;45.54;99580.71;130385;1098;22589;-63
2021/06/01 11:23:11;;;;;;;2.13;1.20;;;;;;;14.81;45.60;99572.47;130367;1098;22514;-63
2021/06/01 11:34:05;;;;;;;7.60;1.70;;;;;;;14.75;44.82;99587.30;130336;1098;22511;-63
2021/06/01 11:36:37;;;;;;;4.75;1.53;;;;;;;14.70;45.03;99577.20;130337;1098;22689;-65
2021/06/01 11:39:33;;;;;;;8.95;1.58;;;;;;;14.67;45.38;99579.69;130346;1098;22534;-63
2021/06/01 11:45:01;;;;;;;4.30;1.50;;;;;;;14.61;44.75;99578.88;130327;1098;23398;-65
2021/06/01 11:47:42;;;;;;;3.95;1.20;;;;;;;14.62;46.07;99579.70;130397;1098;22547;-64
2021/06/01 11:53:01;;;;;;;2.50;1.38;;;;;;;14.74;45.71;99571.95;130380;1098;22573;-65
2021/06/01 11:55:30;;;;;;;5.73;1.50;;;;;;;14.77;45.32;99585.09;130365;1098;22531;-64
2021/06/01 12:04:00;;;;;;;2.78;1.43;;;;;;;14.74;45.47;99578.25;130383;1098;23291;-65
2021/06/01 12:12:10;;;;;;;5.23;1.33;;;;;;;14.76;45.98;99575.23;130365;1098;23564;-65
2021/06/01 12:17:52;;;;;;;6.03;1.45;;;;;;;14.82;44.01;99576.84;129944;1101;22690;-66
2021/06/01 12:20:20;;;;;;;3.40;1.25;;;;;;;14.82;44.62;99565.88;129953;1101;22702;-65
2021/06/01 12:22:56;;;;;;;3.90;1.28;;;;;;;14.84;45.38;99569.98;129989;1101;22656;-65
2021/06/01 12:25:25;;;;;;;3.25;1.63;;;;;;;14.89;45.24;99566.36;129976;1101;22554;-65
2021/06/01 12:30:53;;;;;;;5.28;1.80;;;;;;;14.95;45.65;99573.46;129995;1101;22666;-64
2021/06/01 12:31:00;;;;;;;3.63;1.88;;;;;;;15.04;44.85;99565.43;129969;1101;22674;-64
2021/06/01 12:33:28;;;;;;;9.70;1.33;;;;;;;15.03;44.63;99588.48;129950;1101;22882;-64
2021/06/01 12:42:17;;;;;;;2.85;1.30;;;;;;;14.90;45.27;99572.66;129954;1101;22609;-60
2021/06/01 12:44:41;;;;;;;4.28;2.58;;;;;;;14.88;45.38;99563.90;129915;1101;22665;-60
2021/06/01 13:22:27;;;;;;;5.60;1.90;;;;;;;14.84;45.22;99564.49;129963;1101;22611;-61
2021/06/01 13:36:52;;;;;;;6.60;1.78;;;;;;;14.66;45.56;99567.08;129924;1101;22629;-61
2021/06/01 13:47:23;;;;;;;5.38;2.23;;;;;;;14.81;44.70;99564.23;129995;1101;22559;-59
2021/06/01 13:50:02;;;;;;;6.95;1.70;;;;;;;14.88;44.10;99550.19;129938;1101;22614;-59
2021/06/01 13:52:50;;;;;;;8.40;1.63;;;;;;;14.96;44.69;99563.31;129994;1101;23144;-58
2021/06/01 13:55:28;;;;;;;8.70;3.88;;;;;;;14.99;45.23;99563.56;129897;1101;22516;-58
2021/06/01 13:58:23;;;;;;;9.00;2.20;;;;;;;14.97;45.51;99563.03;129951;1101;22736;-59
2021/06/01 14:01:05;;;;;;;8.53;1.48;;;;;;;14.86;44.24;99567.74;129912;1101;22640;-59